Time;durP1;ratioP1;P1;durP2;ratioP2;P2;SDS_P1;SDS_P2;PMS_P1;PMS_P2;Temp;Humidity;BMP_temperature;BMP_pressure;BME280_temperature;BME280_humidity;BME280_pressure;Samples;Min_cycle;Max_cycle;Signal;HPM_P1;HPM_P2
2023/11/21 00:00:55;;;;;;;10.90;2.38;;;;;;;6.61;63.24;100966.75;5022013;28;20033;-69
2023/11/21 00:03:20;;;;;;;10.43;2.10;;;;;;;6.62;63.28;100976.28;5026387;28;20094;-70
2023/11/21 00:05:45;;;;;;;9.38;1.63;;;;;;;6.60;62.95;100970.25;5020352;28;20151;-67
2023/11/21 00:08:11;;;;;;;16.02;2.90;;;;;;;6.59;63.23;100965.09;5024357;28;20083;-67
2023/11/21 00:10:38;;;;;;;12.52;2.05;;;;;;;6.59;63.24;100965.09;5023445;28;20039;-67
2023/11/21 00:13:04;;;;;;;7.28;2.08;;;;;;;6.61;63.06;100971.09;5026446;28;20033;-67
2023/11/21 00:15:29;;;;;;;9.25;1.27;;;;;;;6.65;63.29;100975.34;5029863;28;20037;-67
2023/11/21 00:17:55;;;;;;;9.35;2.05;;;;;;;6.67;63.13;100984.81;5026440;28;20041;-69
2023/11/21 00:20:20;;;;;;;6.70;1.65;;;;;;;6.69;63.13;100977.84;5031823;28;20029;-67
2023/11/21 00:22:46;;;;;;;9.65;1.92;;;;;;;6.70;63.45;100982.13;5030142;28;20491;-67
2023/11/21 00:25:14;;;;;;;12.75;2.75;;;;;;;6.68;63.07;100985.66;5022189;28;20032;-68
2023/11/21 00:27:41;;;;;;;6.88;1.95;;;;;;;6.75;63.12;100982.03;5017633;28;20499;-66
2023/11/21 00:30:08;;;;;;;10.27;1.48;;;;;;;6.77;62.80;100993.25;5027859;28;20302;-67
2023/11/21 00:32:35;;;;;;;7.45;1.95;;;;;;;6.80;63.13;100981.94;5016488;28;20132;-67
2023/11/21 00:35:01;;;;;;;8.85;1.73;;;;;;;6.81;63.05;100989.69;5044235;28;20032;-68
2023/11/21 00:37:27;;;;;;;9.15;2.08;;;;;;;6.76;62.87;100985.50;5027902;28;20037;-67
2023/11/21 00:39:53;;;;;;;5.53;1.23;;;;;;;6.77;62.90;100985.44;5025563;28;20032;-68
2023/11/21 00:42:18;;;;;;;8.35;1.25;;;;;;;6.74;63.13;100992.47;5029590;28;20469;-68
2023/11/21 00:44:44;;;;;;;5.13;1.52;;;;;;;6.59;63.09;100998.84;5027477;28;20052;-68
2023/11/21 00:47:10;;;;;;;19.35;3.22;;;;;;;6.57;63.31;101008.41;5027258;28;20048;-67
2023/11/21 00:49:35;;;;;;;19.40;4.40;;;;;;;6.41;63.71;101002.69;5026093;28;20032;-67
2023/11/21 00:52:01;;;;;;;16.52;3.55;;;;;;;6.47;64.05;101011.19;5028615;28;20055;-68
2023/11/21 00:54:27;;;;;;;13.80;3.65;;;;;;;6.53;63.64;101018.03;5029669;28;20037;-67
2023/11/21 00:56:52;;;;;;;13.27;3.63;;;;;;;6.53;63.70;101027.53;5026208;28;20060;-76
2023/11/21 00:59:18;;;;;;;10.52;3.38;;;;;;;6.59;63.58;101028.25;5029191;28;20419;-76
2023/11/21 01:01:44;;;;;;;11.10;3.88;;;;;;;6.54;63.79;101031.84;5029101;28;20140;-76
2023/11/21 01:04:10;;;;;;;15.60;4.13;;;;;;;6.53;63.88;101035.31;5013260;28;21793;-75
2023/11/21 01:06:35;;;;;;;16.25;4.22;;;;;;;6.57;63.58;101039.56;5028136;28;20041;-76
2023/11/21 01:09:01;;;;;;;8.38;3.80;;;;;;;6.62;63.70;101042.91;5026758;28;20098;-75
2023/11/21 01:11:26;;;;;;;11.23;2.72;;;;;;;6.68;63.73;101051.44;5016026;28;20475;-76
2023/11/21 01:13:53;;;;;;;11.82;3.00;;;;;;;6.69;63.68;101060.13;5011765;28;20564;-76
2023/11/21 01:16:18;;;;;;;8.35;2.70;;;;;;;6.73;63.46;101061.75;5020961;28;20033;-76
2023/11/21 01:18:44;;;;;;;7.18;2.47;;;;;;;6.66;63.49;101062.75;5011501;28;20114;-75
2023/11/21 01:21:09;;;;;;;6.20;2.47;;;;;;;6.71;63.90;101073.94;5028439;28;20029;-76
2023/11/21 01:23:35;;;;;;;7.95;2.28;;;;;;;6.75;63.72;101072.94;5013414;28;20037;-75
2023/11/21 01:26:01;;;;;;;5.93;2.10;;;;;;;6.69;63.64;101075.69;5028821;28;20040;-76
2023/11/21 01:28:26;;;;;;;5.43;1.60;;;;;;;6.56;64.20;101079.44;5045553;28;20480;-68
2023/11/21 01:30:52;;;;;;;4.55;1.90;;;;;;;6.67;64.02;101083.50;5008216;28;20114;-71
2023/11/21 01:33:18;;;;;;;5.20;1.88;;;;;;;6.67;64.11;101086.09;5014178;28;20118;-71
2023/11/21 01:35:46;;;;;;;4.55;2.00;;;;;;;6.65;64.28;101094.81;5027058;28;20501;-71
2023/11/21 01:38:12;;;;;;;7.25;2.95;;;;;;;6.59;64.22;101093.19;5013248;28;20037;-71
2023/11/21 01:40:38;;;;;;;8.38;3.80;;;;;;;6.67;64.01;101088.69;5009953;28;20032;-70
2023/11/21 01:43:03;;;;;;;7.28;3.38;;;;;;;6.71;63.74;101097.31;5025171;28;20391;-71
2023/11/21 01:45:33;;;;;;;6.18;3.92;;;;;;;6.56;64.14;101105.41;5030162;28;20124;-71
2023/11/21 01:48:00;;;;;;;8.88;4.45;;;;;;;6.57;64.21;101102.75;5031231;28;20037;-72
2023/11/21 01:50:26;;;;;;;11.60;5.88;;;;;;;6.52;64.25;101106.34;5029395;28;20033;-74
2023/11/21 01:52:53;;;;;;;15.40;6.57;;;;;;;6.62;63.86;101111.31;5025566;28;20075;-74
2023/11/21 01:55:19;;;;;;;20.67;8.20;;;;;;;6.34;64.67;101110.97;5029213;28;20116;-75
2023/11/21 01:57:46;;;;;;;21.27;8.80;;;;;;;6.46;64.43;101115.09;5027092;28;20052;-76
2023/11/21 02:00:15;;;;;;;23.33;8.88;;;;;;;6.31;64.75;101120.56;5028857;28;20260;-75
2023/11/21 02:02:47;;;;;;;20.80;9.48;;;;;;;6.26;64.65;101129.28;5025055;28;20227;-75
2023/11/21 02:05:19;;;;;;;22.63;8.43;;;;;;;6.39;64.32;101129.91;5027102;28;20518;-76
2023/11/21 02:07:47;;;;;;;;;;;;;;;6.36;64.56;101135.19;5024870;28;20067;-73
2023/11/21 02:10:18;;;;;;;18.48;8.38;;;;;;;6.40;64.39;101131.66;5040900;28;19919;-75
2023/11/21 02:12:44;;;;;;;23.10;8.27;;;;;;;6.35;64.33;101136.06;5023638;28;20048;-76
2023/11/21 02:15:19;;;;;;;21.63;8.55;;;;;;;6.12;64.86;101127.78;5010238;28;20487;-75
2023/11/21 02:17:47;;;;;;;16.88;8.45;;;;;;;6.21;64.18;101131.06;5016142;28;20040;-73
2023/11/21 02:20:17;;;;;;;14.05;7.38;;;;;;;6.07;64.74;101139.09;5024996;28;20404;-72
2023/11/21 02:22:57;;;;;;;25.05;10.75;;;;;;;6.09;64.67;101139.94;5008607;28;20033;-79
2023/11/21 02:25:29;;;;;;;19.80;8.77;;;;;;;6.24;64.46;101145.75;5009409;28;20047;-69
2023/11/21 02:27:55;;;;;;;18.43;9.80;;;;;;;6.20;64.33;101150.16;5004257;28;20045;-69
2023/11/21 02:30:21;;;;;;;18.17;8.25;;;;;;;6.16;64.56;101158.00;5025190;28;20056;-66
2023/11/21 02:32:53;;;;;;;19.88;8.55;;;;;;;6.15;64.36;101161.47;5023211;28;20491;-68
2023/11/21 02:35:21;;;;;;;19.07;7.77;;;;;;;6.12;64.24;101156.34;5027941;28;20028;-67
2023/11/21 02:37:49;;;;;;;19.52;7.20;;;;;;;6.14;64.42;101170.16;5021844;28;20272;-66
2023/11/21 02:40:20;;;;;;;17.10;7.70;;;;;;;5.98;64.50;101165.22;5026668;28;20034;-66
2023/11/21 02:42:50;;;;;;;20.40;7.03;;;;;;;5.89;64.29;101173.16;5023968;28;20147;-67
2023/11/21 02:45:17;;;;;;;22.02;7.82;;;;;;;5.98;64.41;101175.59;5027690;28;20029;-70
2023/11/21 02:47:43;;;;;;;15.52;6.70;;;;;;;5.77;64.48;101174.19;5014917;28;20045;-68
2023/11/21 02:50:09;;;;;;;22.38;7.72;;;;;;;5.83;64.62;101178.41;5008915;28;20040;-68
2023/11/21 02:52:35;;;;;;;17.65;6.85;;;;;;;5.88;64.44;101180.06;5027573;28;20040;-67
2023/11/21 02:55:02;;;;;;;15.88;6.10;;;;;;;5.98;63.84;101188.56;5007343;28;20445;-68
2023/11/21 02:57:27;;;;;;;12.60;6.95;;;;;;;5.76;64.18;101197.56;5024117;28;20393;-66
2023/11/21 02:59:52;;;;;;;15.02;6.82;;;;;;;5.84;64.01;101198.31;5024431;28;20038;-68
2023/11/21 03:02:22;;;;;;;15.07;7.22;;;;;;;5.82;64.46;101205.25;5024723;28;20041;-68
2023/11/21 03:04:49;;;;;;;11.43;6.45;;;;;;;5.79;64.33;101206.16;5024835;28;20380;-68
2023/11/21 03:07:21;;;;;;;19.35;9.77;;;;;;;5.81;63.85;101200.94;5024128;28;20029;-68
2023/11/21 03:09:47;;;;;;;25.63;10.85;;;;;;;5.86;63.73;101212.97;5024415;28;20029;-69
2023/11/21 03:12:15;;;;;;;20.42;9.02;;;;;;;5.71;64.11;101217.53;5027123;28;20071;-71
2023/11/21 03:14:41;;;;;;;18.67;10.45;;;;;;;5.78;63.73;101217.41;5027497;28;20063;-71
2023/11/21 03:17:06;;;;;;;20.45;9.27;;;;;;;5.88;63.76;101221.59;5025059;28;20461;-71
2023/11/21 03:19:34;;;;;;;16.25;8.45;;;;;;;5.66;63.81;101225.38;5025797;28;20179;-71
2023/11/21 03:22:00;;;;;;;21.90;11.52;;;;;;;5.77;63.49;101225.19;5025870;28;20542;-68
2023/11/21 03:24:26;;;;;;;19.92;9.57;;;;;;;5.45;63.90;101231.69;5022505;28;20037;-68
2023/11/21 03:26:52;;;;;;;21.17;10.48;;;;;;;5.49;63.65;101225.59;5011472;28;20033;-69
2023/11/21 03:29:18;;;;;;;18.80;9.80;;;;;;;5.36;64.11;101221.44;5022671;28;20037;-69
2023/11/21 03:31:44;;;;;;;21.35;11.43;;;;;;;5.36;64.24;101232.66;5027520;28;20376;-69
2023/11/21 03:34:15;;;;;;;18.98;9.20;;;;;;;5.45;63.90;101237.72;5028115;28;20558;-68
2023/11/21 03:36:41;;;;;;;21.67;10.32;;;;;;;5.17;64.16;101237.22;5027522;28;20024;-68
2023/11/21 03:39:07;;;;;;;21.80;9.48;;;;;;;5.34;63.84;101243.91;5023529;28;20072;-70
2023/11/21 03:41:33;;;;;;;20.15;10.40;;;;;;;5.42;63.41;101247.28;5032579;28;20040;-68
2023/11/21 03:43:59;;;;;;;21.27;8.13;;;;;;;5.15;63.84;101246.75;5023777;28;20124;-68
2023/11/21 03:46:25;;;;;;;19.02;8.45;;;;;;;5.33;63.48;101257.78;5008926;28;20055;-68
2023/11/21 03:48:50;;;;;;;13.50;6.50;;;;;;;5.36;62.92;101255.13;5024314;28;20578;-68
2023/11/21 03:51:16;;;;;;;13.95;7.60;;;;;;;5.46;62.76;101259.34;5024571;28;20476;-69
2023/11/21 03:53:41;;;;;;;19.70;8.35;;;;;;;5.13;63.48;101251.06;5026623;28;20037;-68
2023/11/21 03:56:09;;;;;;;18.67;7.55;;;;;;;5.28;63.26;101257.81;5016288;28;20029;-68
2023/11/21 03:58:35;;;;;;;18.73;7.63;;;;;;;5.42;62.93;101261.09;5009095;28;20037;-68
2023/11/21 04:01:01;;;;;;;17.30;8.35;;;;;;;5.33;63.14;101261.22;5025508;28;20559;-78
2023/11/21 04:03:27;;;;;;;13.13;8.00;;;;;;;5.37;63.06;101269.78;5021347;28;20655;-78
2023/11/21 04:05:52;;;;;;;21.63;10.13;;;;;;;5.44;62.88;101271.47;5007905;28;20088;-78
2023/11/21 04:08:17;;;;;;;18.33;8.38;;;;;;;5.50;62.54;101279.13;5027979;28;20060;-78
2023/11/21 04:10:43;;;;;;;26.98;9.55;;;;;;;5.41;63.08;101284.44;5026545;28;20506;-69
2023/11/21 04:13:08;;;;;;;24.70;10.63;;;;;;;5.43;62.65;101286.13;5025083;28;20518;-70
2023/11/21 04:15:34;;;;;;;22.70;8.98;;;;;;;5.48;62.75;101293.00;5009352;28;20056;-71
2023/11/21 04:17:59;;;;;;;14.93;8.40;;;;;;;5.52;62.50;101295.53;5024359;28;20033;-70
2023/11/21 04:20:25;;;;;;;18.63;9.07;;;;;;;5.40;63.05;101298.28;5023052;28;20249;-70
2023/11/21 04:22:50;;;;;;;17.88;8.27;;;;;;;5.35;62.59;101302.69;5022537;28;20049;-71
2023/11/21 04:25:16;;;;;;;17.38;8.68;;;;;;;5.15;63.19;101306.34;5026968;28;20043;-71
2023/11/21 04:27:45;;;;;;;14.25;8.07;;;;;;;5.22;62.78;101314.91;5022390;28;20066;-71
2023/11/21 04:30:12;;;;;;;14.40;6.43;;;;;;;5.30;62.31;101323.47;5022876;28;20040;-71
2023/11/21 04:32:39;;;;;;;12.65;6.95;;;;;;;5.09;63.05;101327.13;5025884;28;20336;-71
2023/11/21 04:35:05;;;;;;;17.73;7.47;;;;;;;5.22;62.39;101326.13;5025123;28;20048;-71
2023/11/21 04:37:30;;;;;;;16.95;7.72;;;;;;;5.17;63.01;101329.66;5023973;28;20476;-70
2023/11/21 04:39:55;;;;;;;15.07;8.13;;;;;;;5.11;62.87;101338.34;5020013;28;20060;-75
2023/11/21 04:42:21;;;;;;;18.85;7.40;;;;;;;5.05;62.64;101346.16;5023957;28;20048;-67
2023/11/21 04:44:47;;;;;;;12.98;7.18;;;;;;;5.22;62.07;101343.41;5025810;28;20036;-67
2023/11/21 04:47:12;;;;;;;18.10;8.85;;;;;;;5.12;62.42;101341.78;5020818;28;20040;-67
2023/11/21 04:49:41;;;;;;;14.25;7.72;;;;;;;5.20;61.96;101348.59;5025889;28;20698;-66
2023/11/21 04:52:09;;;;;;;13.50;7.30;;;;;;;5.20;62.22;101351.19;5038555;28;20415;-68
2023/11/21 04:54:35;;;;;;;14.32;8.60;;;;;;;5.17;62.09;101363.34;5024141;28;20051;-65
2023/11/21 04:57:01;;;;;;;10.95;6.72;;;;;;;5.06;62.45;101363.44;5024914;28;20483;-68
2023/11/21 04:59:27;;;;;;;12.35;7.43;;;;;;;5.11;62.09;101365.97;5025035;28;20063;-67
2023/11/21 05:01:53;;;;;;;13.13;7.28;;;;;;;5.16;61.80;101379.75;5027562;28;20119;-67
2023/11/21 05:04:19;;;;;;;12.18;7.13;;;;;;;5.05;61.89;101379.84;5029720;28;20205;-67
2023/11/21 05:06:46;;;;;;;16.13;7.95;;;;;;;4.75;62.33;101376.59;5045433;28;20043;-67
2023/11/21 05:09:11;;;;;;;15.95;8.23;;;;;;;4.84;61.67;101383.44;5025693;28;20040;-66
2023/11/21 05:11:38;;;;;;;9.57;5.95;;;;;;;4.72;62.01;101388.69;5029290;28;20494;-66
2023/11/21 05:14:05;;;;;;;8.82;5.85;;;;;;;4.94;61.33;101392.03;5028396;28;20514;-67
2023/11/21 05:16:30;;;;;;;13.65;6.63;;;;;;;4.80;61.10;101398.13;5030499;28;20178;-66
2023/11/21 05:19:00;;;;;;;11.68;7.32;;;;;;;5.01;60.93;101396.28;5027521;28;20148;-67
2023/11/21 05:21:26;;;;;;;12.00;6.57;;;;;;;4.98;60.85;101411.84;5028199;28;20032;-66
2023/11/21 05:23:52;;;;;;;9.32;6.28;;;;;;;4.89;60.86;101411.94;5026687;28;20075;-67
2023/11/21 05:26:17;;;;;;;10.48;6.93;;;;;;;5.02;60.35;101413.56;5028751;28;20125;-67
2023/11/21 05:28:43;;;;;;;10.65;6.20;;;;;;;5.09;60.35;101412.63;5030090;28;20111;-65
2023/11/21 05:31:10;;;;;;;9.25;5.93;;;;;;;5.11;60.29;101423.00;5025079;28;21427;-65
2023/11/21 05:33:36;;;;;;;12.70;6.80;;;;;;;5.13;60.44;101432.47;5027780;28;20601;-66
2023/11/21 05:36:01;;;;;;;11.07;6.93;;;;;;;5.12;60.19;101430.72;5008070;28;20047;-67
2023/11/21 05:38:27;;;;;;;11.40;6.65;;;;;;;5.16;60.35;101429.84;5029473;28;20041;-67
2023/11/21 05:40:52;;;;;;;11.90;6.95;;;;;;;5.04;60.06;101440.31;5025939;28;20060;-67
2023/11/21 05:43:18;;;;;;;13.15;5.82;;;;;;;5.04;59.83;101448.94;5030776;28;20060;-68
2023/11/21 05:45:43;;;;;;;7.85;5.60;;;;;;;5.10;59.63;101450.63;5029835;28;20538;-71
2023/11/21 05:48:09;;;;;;;9.27;5.28;;;;;;;4.93;60.08;101455.94;5028381;28;20186;-71
2023/11/21 05:50:34;;;;;;;9.20;5.13;;;;;;;5.03;59.54;101461.91;5030013;28;20056;-70
2023/11/21 05:53:00;;;;;;;9.55;5.50;;;;;;;4.89;59.70;101468.91;5026420;28;20103;-72
2023/11/21 05:55:26;;;;;;;9.63;5.47;;;;;;;4.93;59.20;101471.47;5031321;28;20029;-70
2023/11/21 05:57:51;;;;;;;8.27;4.45;;;;;;;4.90;59.03;101481.88;5029011;28;20149;-69
2023/11/21 06:00:21;;;;;;;7.95;3.97;;;;;;;4.87;58.93;101479.25;5029266;28;20033;-69
2023/11/21 06:02:50;;;;;;;7.93;4.53;;;;;;;4.92;58.36;101489.59;5029955;28;20082;-70
2023/11/21 06:05:17;;;;;;;6.28;3.92;;;;;;;4.82;58.90;101494.81;5026370;28;20064;-71
2023/11/21 06:07:43;;;;;;;8.48;4.20;;;;;;;4.78;58.89;101497.44;5026463;28;20483;-71
2023/11/21 06:10:12;;;;;;;6.70;4.10;;;;;;;4.81;59.20;101508.66;5028592;28;20033;-72
2023/11/21 06:12:41;;;;;;;6.53;4.25;;;;;;;4.76;58.87;101510.38;5028710;28;20045;-73
2023/11/21 06:15:09;;;;;;;7.40;4.32;;;;;;;4.65;58.85;101517.34;5028403;28;20056;-69
2023/11/21 06:17:36;;;;;;;10.73;4.65;;;;;;;4.79;58.64;101520.75;5030087;28;20037;-74
2023/11/21 06:20:09;;;;;;;7.35;4.15;;;;;;;4.79;58.37;101525.06;5024576;28;20040;-74
2023/11/21 06:22:39;;;;;;;9.13;4.85;;;;;;;4.74;59.00;101527.66;5027134;28;20469;-69
2023/11/21 06:25:05;;;;;;;8.23;4.43;;;;;;;4.79;58.59;101530.25;5027825;28;20399;-69
2023/11/21 06:27:37;;;;;;;7.60;4.63;;;;;;;4.82;58.51;101530.22;5016271;28;20060;-69
2023/11/21 06:30:03;;;;;;;;;;;;;;;4.74;58.71;101532.00;5044581;28;20031;-68
2023/11/21 06:32:29;;;;;;;9.15;3.88;;;;;;;4.67;58.34;101531.16;5029479;28;20265;-68
2023/11/21 06:34:56;;;;;;;8.80;3.70;;;;;;;4.65;58.57;101538.06;5026925;28;20119;-71
2023/11/21 06:37:23;;;;;;;7.72;4.05;;;;;;;4.57;58.92;101539.84;5029531;28;20603;-71
2023/11/21 06:39:49;;;;;;;7.15;3.67;;;;;;;4.67;58.75;101551.03;5029154;28;20037;-69
2023/11/21 06:42:15;;;;;;;8.77;4.05;;;;;;;4.59;58.46;101551.06;5027941;28;20079;-67
2023/11/21 06:44:41;;;;;;;9.45;4.72;;;;;;;4.54;59.00;101555.38;5025199;28;20509;-70
2023/11/21 06:47:07;;;;;;;8.98;4.10;;;;;;;4.55;58.55;101563.16;5019007;28;20037;-70
2023/11/21 06:49:32;;;;;;;9.18;4.10;;;;;;;4.41;59.11;101565.78;5020520;28;20045;-68
2023/11/21 06:51:58;;;;;;;6.60;4.22;;;;;;;4.49;58.57;101567.50;5022804;28;20041;-69
2023/11/21 06:54:24;;;;;;;8.65;4.45;;;;;;;4.33;58.57;101571.84;5028993;28;20387;-69
2023/11/21 06:56:50;;;;;;;11.25;6.28;;;;;;;4.37;58.51;101582.19;5026297;28;20768;-69
2023/11/21 06:59:16;;;;;;;7.80;4.28;;;;;;;4.24;58.97;101572.75;5024796;28;20083;-69
2023/11/21 07:01:41;;;;;;;11.15;5.80;;;;;;;4.30;58.84;101574.47;5026398;28;20032;-69
2023/11/21 07:04:08;;;;;;;12.27;5.13;;;;;;;4.28;58.32;101584.81;5004001;28;20094;-68
2023/11/21 07:06:35;;;;;;;10.45;5.70;;;;;;;4.42;58.27;101595.97;5009952;28;20566;-70
2023/11/21 07:09:01;;;;;;;8.63;4.50;;;;;;;4.48;57.97;101591.66;5024241;28;20047;-72
2023/11/21 07:11:27;;;;;;;7.05;4.68;;;;;;;4.37;58.22;101608.06;5027152;28;20036;-64
2023/11/21 07:13:53;;;;;;;8.55;4.85;;;;;;;4.35;57.99;101612.41;5025970;28;20045;-70
2023/11/21 07:16:19;;;;;;;11.40;5.28;;;;;;;4.40;57.73;101623.59;5017112;28;20096;-69
2023/11/21 07:18:44;;;;;;;13.43;5.22;;;;;;;4.33;58.17;101623.63;5024633;28;20384;-68
2023/11/21 07:21:12;;;;;;;10.55;4.78;;;;;;;4.41;58.06;101633.09;5025492;28;20162;-67
2023/11/21 07:23:40;;;;;;;6.75;4.25;;;;;;;4.46;57.36;101635.66;5040108;28;20558;-67
2023/11/21 07:26:09;;;;;;;8.55;5.03;;;;;;;4.30;57.99;101640.00;5023706;28;20503;-66
2023/11/21 07:28:35;;;;;;;9.68;5.43;;;;;;;4.36;57.71;101632.25;5024211;28;20040;-66
2023/11/21 07:31:01;;;;;;;11.35;5.50;;;;;;;4.45;57.50;101646.03;5021599;28;20041;-67
2023/11/21 07:33:27;;;;;;;9.65;5.00;;;;;;;4.43;57.01;101652.06;5027758;28;20458;-68
2023/11/21 07:35:52;;;;;;;11.38;5.20;;;;;;;4.53;57.18;101659.81;5025880;28;20560;-67
2023/11/21 07:38:18;;;;;;;7.30;4.45;;;;;;;4.48;57.59;101671.91;5024031;28;20132;-66
2023/11/21 07:40:44;;;;;;;11.15;4.93;;;;;;;4.58;57.12;101671.00;5014845;28;20063;-67
2023/11/21 07:43:10;;;;;;;14.93;5.90;;;;;;;4.60;57.28;101669.28;5024656;28;20689;-67
2023/11/21 07:45:36;;;;;;;9.50;5.18;;;;;;;4.59;57.37;101673.59;5027888;28;20036;-67
2023/11/21 07:48:03;;;;;;;12.27;4.38;;;;;;;4.64;57.30;101679.63;5020795;28;20650;-67
2023/11/21 07:50:29;;;;;;;12.02;5.85;;;;;;;4.75;56.86;101689.97;5029031;28;20067;-67
2023/11/21 07:52:55;;;;;;;12.40;5.50;;;;;;;4.73;56.76;101691.69;5022792;28;20127;-67
2023/11/21 07:55:20;;;;;;;7.97;4.63;;;;;;;4.69;56.93;101696.91;5024912;28;20032;-66
2023/11/21 07:57:46;;;;;;;11.73;5.53;;;;;;;4.58;57.20;101702.94;5025678;28;20388;-65
2023/11/21 08:00:12;;;;;;;12.13;5.80;;;;;;;4.74;56.69;101702.91;5022861;28;20610;-65
2023/11/21 08:02:42;;;;;;;9.10;4.60;;;;;;;4.91;56.32;101710.69;5029001;28;20072;-66
2023/11/21 08:05:08;;;;;;;9.20;5.07;;;;;;;4.91;56.16;101711.53;5022573;28;20036;-67
2023/11/21 08:07:34;;;;;;;11.30;5.35;;;;;;;4.67;56.48;101716.75;5026469;28;20086;-66
2023/11/21 08:10:00;;;;;;;10.65;5.35;;;;;;;4.89;56.07;101721.03;5026162;28;20033;-66
2023/11/21 08:12:27;;;;;;;11.48;5.63;;;;;;;4.84;56.12;101725.34;5008243;28;20139;-67
2023/11/21 08:14:56;;;;;;;10.48;5.82;;;;;;;4.91;56.24;101731.41;5024899;28;20059;-67
2023/11/21 08:17:21;;;;;;;9.80;5.63;;;;;;;4.93;56.66;101737.44;5023389;28;20108;-67
2023/11/21 08:19:49;;;;;;;8.93;5.32;;;;;;;4.91;56.54;101746.97;5027135;28;20595;-67
2023/11/21 08:22:20;;;;;;;13.50;5.85;;;;;;;5.07;56.34;101743.44;5022658;28;20646;-66
2023/11/21 08:24:46;;;;;;;12.00;5.70;;;;;;;5.03;56.80;101746.91;5025043;28;20622;-66
2023/11/21 08:27:15;;;;;;;10.18;5.72;;;;;;;5.00;57.00;101746.94;5021616;28;20073;-67
2023/11/21 08:29:41;;;;;;;11.90;7.53;;;;;;;4.99;56.81;101755.59;5029946;28;20037;-67
2023/11/21 08:32:07;;;;;;;11.98;6.60;;;;;;;4.90;56.92;101756.47;5020238;28;20064;-66
2023/11/21 08:34:33;;;;;;;13.63;6.20;;;;;;;5.04;56.24;101759.00;5028936;28;20033;-66
2023/11/21 08:36:58;;;;;;;11.20;5.00;;;;;;;5.14;55.85;101765.88;5017377;28;20032;-67
2023/11/21 08:39:24;;;;;;;11.07;5.65;;;;;;;5.28;55.68;101767.56;5027086;28;20330;-66
2023/11/21 08:41:50;;;;;;;12.35;5.55;;;;;;;5.28;55.21;101771.03;5032011;28;20313;-67
2023/11/21 08:44:18;;;;;;;6.85;4.30;;;;;;;5.35;54.96;101780.50;5026966;28;20041;-67
2023/11/21 08:46:45;;;;;;;11.82;4.53;;;;;;;5.54;54.78;101781.28;5031821;28;20510;-65
2023/11/21 08:49:11;;;;;;;8.13;5.22;;;;;;;5.31;54.75;101798.69;5023214;28;20665;-66
2023/11/21 08:51:37;;;;;;;8.70;5.15;;;;;;;5.63;54.38;101794.22;5045018;28;20037;-65
2023/11/21 08:54:07;;;;;;;10.52;4.70;;;;;;;5.67;54.36;101798.50;4997651;28;20882;-64
2023/11/21 08:56:34;;;;;;;7.53;4.28;;;;;;;5.65;54.14;101802.00;5028248;28;20037;-66
2023/11/21 08:59:02;;;;;;;8.10;4.85;;;;;;;5.63;54.55;101801.97;4983249;28;20082;-65
2023/11/21 09:01:28;;;;;;;9.27;5.10;;;;;;;5.58;54.75;101808.94;5022026;28;20033;-65
2023/11/21 09:03:53;;;;;;;10.38;5.05;;;;;;;5.70;54.83;101813.19;5023117;28;20043;-65
2023/11/21 09:06:19;;;;;;;9.35;6.05;;;;;;;5.54;55.58;101820.19;5021854;28;20036;-65
2023/11/21 09:08:44;;;;;;;11.27;6.65;;;;;;;5.53;55.39;101821.06;5025495;28;20052;-64
2023/11/21 09:11:10;;;;;;;12.10;5.65;;;;;;;5.39;56.20;101822.81;5022173;28;20036;-65
2023/11/21 09:13:36;;;;;;;9.80;5.57;;;;;;;5.46;56.16;101829.75;5025724;28;20040;-65
2023/11/21 09:16:02;;;;;;;13.50;6.07;;;;;;;5.41;56.17;101839.25;5026139;28;20056;-66
2023/11/21 09:18:27;;;;;;;8.07;5.03;;;;;;;5.38;56.44;101836.66;5021929;28;20044;-65
2023/11/21 09:20:53;;;;;;;9.90;5.88;;;;;;;5.43;56.15;101850.47;5025415;28;20522;-64
2023/11/21 09:23:19;;;;;;;10.68;5.55;;;;;;;5.46;56.60;101851.34;5021987;28;20195;-66
2023/11/21 09:25:46;;;;;;;12.52;6.22;;;;;;;5.32;56.66;101860.00;5026386;28;20029;-65
2023/11/21 09:28:12;;;;;;;10.82;7.13;;;;;;;5.25;57.14;101860.00;5019912;28;22223;-66
2023/11/21 09:30:38;;;;;;;9.05;5.72;;;;;;;5.37;56.52;101860.84;5026961;28;20041;-64
2023/11/21 09:33:06;;;;;;;10.88;6.05;;;;;;;5.35;56.65;101876.44;5026615;28;20075;-64
2023/11/21 09:35:32;;;;;;;13.05;6.72;;;;;;;5.29;57.45;101870.41;5024100;28;20462;-65
2023/11/21 09:37:58;;;;;;;12.23;5.65;;;;;;;5.39;56.97;101875.56;5006864;28;20049;-64
2023/11/21 09:40:24;;;;;;;12.50;5.40;;;;;;;5.36;57.50;101882.47;5029758;28;20503;-64
2023/11/21 09:42:55;;;;;;;12.73;4.45;;;;;;;5.40;57.23;101886.78;5027102;28;20045;-64
2023/11/21 09:45:25;;;;;;;13.25;6.22;;;;;;;5.33;57.56;101891.13;5023846;28;20495;-67
2023/11/21 09:47:55;;;;;;;8.32;4.15;;;;;;;5.33;57.33;101887.69;5022704;28;20064;-64
2023/11/21 09:50:22;;;;;;;8.80;5.07;;;;;;;5.40;56.88;101897.16;5022717;28;20044;-66
2023/11/21 09:53:15;;;;;;;8.68;4.97;;;;;;;5.44;57.28;101898.88;5021824;28;20049;-68
2023/11/21 09:55:43;;;;;;;12.80;5.97;;;;;;;5.52;57.12;101902.31;5028624;28;20037;-65
2023/11/21 09:58:12;;;;;;;8.70;5.22;;;;;;;5.37;56.60;101907.53;5022937;28;20079;-65
2023/11/21 10:00:48;;;;;;;14.00;5.07;;;;;;;5.42;56.40;101906.66;5022934;28;20025;-66
2023/11/21 10:03:14;;;;;;;7.50;3.97;;;;;;;5.52;56.17;101912.69;5022172;28;20045;-66
2023/11/21 10:05:42;;;;;;;5.97;3.78;;;;;;;5.72;56.46;101909.19;5027996;28;20119;-65
2023/11/21 10:08:09;;;;;;;10.50;4.90;;;;;;;5.83;55.90;101912.59;5026342;28;20602;-65
2023/11/21 10:10:44;;;;;;;4.82;3.70;;;;;;;5.58;56.06;101923.03;5027175;28;20029;-66
2023/11/21 10:13:12;;;;;;;6.88;4.30;;;;;;;5.87;55.71;101922.09;5005523;28;20080;-64
2023/11/21 10:15:38;;;;;;;10.98;3.70;;;;;;;5.83;55.89;101929.03;5034537;28;20037;-68
2023/11/21 10:18:06;;;;;;;5.30;3.42;;;;;;;5.69;55.72;101925.63;5025631;28;20045;-65
2023/11/21 10:20:33;;;;;;;9.18;3.83;;;;;;;5.80;56.31;101933.38;5023041;28;20151;-66
2023/11/21 10:23:02;;;;;;;7.18;3.90;;;;;;;5.77;55.72;101935.97;5023567;28;20033;-65
2023/11/21 10:25:28;;;;;;;5.90;3.67;;;;;;;5.80;55.54;101933.38;5023241;28;20056;-66
2023/11/21 10:28:01;;;;;;;4.25;2.60;;;;;;;5.78;55.71;101929.91;5013996;28;20659;-67
2023/11/21 10:30:37;;;;;;;7.13;3.70;;;;;;;5.99;55.41;101929.81;5022920;28;20036;-65
2023/11/21 10:33:04;;;;;;;7.00;3.85;;;;;;;5.76;55.85;101936.84;5023999;28;20029;-65
2023/11/21 10:35:48;;;;;;;11.93;4.75;;;;;;;5.61;55.96;101937.72;5016692;28;20043;-65
2023/11/21 10:38:14;;;;;;;7.93;3.35;;;;;;;5.53;56.15;101932.56;5020994;28;20566;-67
2023/11/21 10:40:44;;;;;;;6.05;2.90;;;;;;;5.74;55.87;101941.16;5015863;28;20025;-65
2023/11/21 10:43:10;;;;;;;4.93;2.53;;;;;;;5.64;55.81;101950.72;5025383;28;20174;-65
2023/11/21 10:45:39;;;;;;;5.05;2.20;;;;;;;5.70;56.25;101947.22;5014995;28;20139;-66
2023/11/21 10:48:07;;;;;;;4.18;2.08;;;;;;;5.73;56.41;101944.66;5019080;28;20037;-65
2023/11/21 10:50:37;;;;;;;8.02;3.35;;;;;;;5.93;56.09;101950.63;5021639;28;20081;-66
2023/11/21 10:53:04;;;;;;;7.82;2.70;;;;;;;5.93;56.35;101952.38;5020021;28;20113;-65
2023/11/21 10:55:31;;;;;;;3.15;2.10;;;;;;;6.01;55.41;101959.22;5024455;28;20041;-66
2023/11/21 10:57:59;;;;;;;3.80;2.38;;;;;;;6.07;55.30;101948.84;5024350;28;20239;-64
2023/11/21 11:00:27;;;;;;;3.70;2.28;;;;;;;6.24;54.65;101958.31;5020587;28;20251;-64
2023/11/21 11:02:58;;;;;;;4.35;2.15;;;;;;;6.26;54.18;101967.81;5002374;28;20029;-64
2023/11/21 11:05:25;;;;;;;4.57;1.85;;;;;;;6.12;53.78;101958.34;5015663;28;20566;-65
2023/11/21 11:08:12;;;;;;;4.97;1.85;;;;;;;6.18;53.54;101961.78;4998438;28;20132;-64
2023/11/21 11:10:38;;;;;;;2.67;1.77;;;;;;;6.26;53.84;101959.13;5011325;28;20053;-64
2023/11/21 11:13:06;;;;;;;4.00;2.15;;;;;;;6.15;54.52;101971.28;4998689;28;20074;-64
2023/11/21 11:15:33;;;;;;;2.50;1.85;;;;;;;5.94;54.69;101967.91;5028445;28;20581;-66
2023/11/21 11:17:59;;;;;;;3.63;2.25;;;;;;;5.94;54.24;101974.84;4988295;28;20103;-64
2023/11/21 11:20:33;;;;;;;3.85;2.15;;;;;;;5.99;54.76;101975.69;4998292;28;20540;-65
2023/11/21 11:23:01;;;;;;;3.20;2.00;;;;;;;5.55;55.84;101972.34;4999709;28;20543;-65
2023/11/21 11:26:09;;;;;;;3.13;1.60;;;;;;;5.63;55.78;101983.53;5023514;28;20055;-64
2023/11/21 11:28:46;;;;;;;5.40;2.35;;;;;;;5.73;55.54;101983.56;4968838;28;20040;-64